createdAt,value
2022-12-25T00:01:24.430Z,7.40
2022-12-25T00:03:52.461Z,7.53
2022-12-25T00:06:20.223Z,7.70
2022-12-25T00:08:47.232Z,8.50
2022-12-25T00:11:18.063Z,7.97
2022-12-25T00:13:45.988Z,7.87
2022-12-25T00:16:20.815Z,8.37
2022-12-25T00:18:48.995Z,8.03
2022-12-25T00:21:16.373Z,10.07
2022-12-25T00:23:43.632Z,8.40
2022-12-25T00:26:17.660Z,8.50
2022-12-25T00:28:45.185Z,7.10
2022-12-25T00:31:15.766Z,8.20
2022-12-25T00:33:46.154Z,8.40
2022-12-25T00:36:16.682Z,8.50
2022-12-25T00:38:44.939Z,9.20
2022-12-25T00:41:42.491Z,9.23
2022-12-25T00:44:12.855Z,10.03
2022-12-25T00:46:41.594Z,10.03
2022-12-25T00:49:09.523Z,10.77
2022-12-25T00:51:36.685Z,9.63
2022-12-25T00:54:03.957Z,9.90
2022-12-25T00:56:30.996Z,10.83
2022-12-25T00:58:57.983Z,11.20
2022-12-25T01:01:25.045Z,10.23
2022-12-25T01:03:52.043Z,10.20
2022-12-25T01:06:19.008Z,10.47
2022-12-25T01:09:04.456Z,10.13
2022-12-25T01:11:32.378Z,9.80
2022-12-25T01:13:59.554Z,9.90
2022-12-25T01:16:26.951Z,10.50
2022-12-25T01:18:54.046Z,10.10
2022-12-25T01:21:21.973Z,9.80
2022-12-25T01:23:51.241Z,9.80
2022-12-25T01:26:20.723Z,11.17
2022-12-25T01:28:47.830Z,11.40
2022-12-25T01:31:18.198Z,9.40
2022-12-25T01:33:46.252Z,10.07
2022-12-25T01:36:18.625Z,9.50
2022-12-25T01:38:46.903Z,8.83
2022-12-25T01:41:17.713Z,10.43
2022-12-25T01:44:37.613Z,12.20
2022-12-25T01:47:06.984Z,13.80
2022-12-25T01:49:38.102Z,9.90
2022-12-25T01:52:23.913Z,9.77
2022-12-25T01:54:58.987Z,8.37
2022-12-25T01:57:33.241Z,7.87
2022-12-25T02:00:02.502Z,7.57
2022-12-25T02:02:29.955Z,7.20
2022-12-25T02:05:16.184Z,6.60
2022-12-25T02:07:44.442Z,6.60
2022-12-25T02:10:13.205Z,6.87
2022-12-25T02:12:42.102Z,7.67
2022-12-25T02:15:17.655Z,7.93
2022-12-25T02:17:47.868Z,6.80
2022-12-25T02:20:33.055Z,6.30
2022-12-25T02:23:40.415Z,8.53
2022-12-25T02:26:32.018Z,9.03
2022-12-25T02:29:44.979Z,7.10
2022-12-25T02:32:26.731Z,8.33
2022-12-25T02:35:11.627Z,7.30
2022-12-25T02:37:53.294Z,7.17
2022-12-25T02:40:25.557Z,8.43
2022-12-25T02:43:21.095Z,7.87
2022-12-25T02:46:19.058Z,7.70
2022-12-25T02:49:14.053Z,8.67
2022-12-25T02:52:26.925Z,8.00
2022-12-25T02:55:45.029Z,8.27
2022-12-25T02:58:36.443Z,7.83
2022-12-25T03:01:31.344Z,7.97
2022-12-25T03:04:25.398Z,7.60
2022-12-25T03:07:16.980Z,7.40
2022-12-25T03:10:10.263Z,7.80
2022-12-25T03:12:50.497Z,7.17
2022-12-25T03:15:38.758Z,7.37
2022-12-25T03:18:10.679Z,7.63
2022-12-25T03:20:56.711Z,7.60
2022-12-25T03:23:48.609Z,6.83
2022-12-25T03:26:35.141Z,7.70
2022-12-25T03:29:02.616Z,7.70
2022-12-25T03:31:53.968Z,7.57
2022-12-25T03:34:42.512Z,8.37
2022-12-25T03:37:44.614Z,8.67
2022-12-25T03:40:56.195Z,7.07
2022-12-25T03:43:53.852Z,8.17
2022-12-25T03:46:40.190Z,6.70
2022-12-25T03:49:52.884Z,7.30
2022-12-25T03:52:39.636Z,7.63
2022-12-25T03:55:29.398Z,7.50
2022-12-25T03:58:15.012Z,8.37
2022-12-25T04:01:01.054Z,7.90
2022-12-25T04:03:46.626Z,7.13
2022-12-25T04:06:31.926Z,6.90
2022-12-25T04:09:17.230Z,7.27
2022-12-25T04:12:04.715Z,6.20
2022-12-25T04:14:49.947Z,6.47
2022-12-25T04:17:35.370Z,6.73
2022-12-25T04:20:20.652Z,6.80
2022-12-25T04:23:05.848Z,7.30
2022-12-25T04:25:51.198Z,7.50
2022-12-25T04:28:36.540Z,8.77
2022-12-25T04:31:22.028Z,9.00
2022-12-25T04:34:07.299Z,8.00
2022-12-25T04:36:34.220Z,7.40
2022-12-25T04:39:01.148Z,8.20
2022-12-25T04:41:28.181Z,7.67
2022-12-25T04:43:55.130Z,8.47
2022-12-25T04:46:22.251Z,10.10
2022-12-25T04:48:49.302Z,9.27
2022-12-25T04:51:23.195Z,7.90
2022-12-25T04:53:52.358Z,9.90
2022-12-25T04:56:20.599Z,9.30
2022-12-25T04:58:47.775Z,8.50
2022-12-25T05:01:15.876Z,9.30
2022-12-25T05:03:43.215Z,8.67
2022-12-25T05:06:10.990Z,8.07
2022-12-25T05:08:38.086Z,9.43
2022-12-25T05:11:14.436Z,8.90
2022-12-25T05:13:42.173Z,9.30
2022-12-25T05:16:15.270Z,9.93
2022-12-25T05:18:42.504Z,10.07
2022-12-25T05:21:12.264Z,9.80
2022-12-25T05:23:48.736Z,10.90
2022-12-25T05:26:25.836Z,9.87
2022-12-25T05:28:53.545Z,10.90
2022-12-25T05:31:21.866Z,9.60
2022-12-25T05:33:52.916Z,9.43
2022-12-25T05:36:20.459Z,9.30
2022-12-25T05:38:47.415Z,9.70
2022-12-25T05:41:14.341Z,9.37
2022-12-25T05:43:41.339Z,10.03
2022-12-25T05:46:10.710Z,9.97
2022-12-25T05:48:38.537Z,10.03
2022-12-25T05:51:14.722Z,11.30
2022-12-25T05:53:44.026Z,10.60
2022-12-25T05:56:11.862Z,10.60
2022-12-25T05:58:40.431Z,10.80
2022-12-25T06:01:18.689Z,10.67
2022-12-25T06:03:45.995Z,11.10
2022-12-25T06:06:13.464Z,12.20
2022-12-25T06:08:41.189Z,11.30
2022-12-25T06:11:11.700Z,11.70
2022-12-25T06:13:38.657Z,11.70
2022-12-25T06:16:12.185Z,11.33
2022-12-25T06:18:43.293Z,9.80
2022-12-25T06:21:14.284Z,11.67
2022-12-25T06:23:42.532Z,11.90
2022-12-25T06:26:17.150Z,11.30
2022-12-25T06:28:45.456Z,12.90
2022-12-25T06:31:19.012Z,12.37
2022-12-25T06:33:46.159Z,12.00
2022-12-25T06:36:29.842Z,11.70
2022-12-25T06:38:59.764Z,11.50
2022-12-25T06:41:29.523Z,11.60
2022-12-25T06:44:02.287Z,11.03
2022-12-25T06:46:31.299Z,9.30
2022-12-25T06:48:59.948Z,10.53
2022-12-25T06:51:31.082Z,10.43
2022-12-25T06:53:59.644Z,11.03
2022-12-25T06:56:28.513Z,12.00
2022-12-25T06:59:05.436Z,10.93
2022-12-25T07:01:50.038Z,12.83
2022-12-25T07:04:32.252Z,9.40
2022-12-25T07:07:08.651Z,10.10
2022-12-25T07:09:36.009Z,10.13
2022-12-25T07:12:29.441Z,10.00
2022-12-25T07:14:56.630Z,9.60
2022-12-25T07:17:24.690Z,9.53
2022-12-25T07:19:52.110Z,10.07
2022-12-25T07:22:19.159Z,10.33
2022-12-25T07:24:46.270Z,11.57
2022-12-25T07:27:13.816Z,13.03
2022-12-25T07:29:40.841Z,12.27
2022-12-25T07:32:08.559Z,10.40
2022-12-25T07:34:35.672Z,11.27
2022-12-25T07:37:03.001Z,15.23
2022-12-25T07:39:30.364Z,17.27
2022-12-25T07:41:57.411Z,17.30
2022-12-25T07:44:25.033Z,16.30
2022-12-25T07:46:51.998Z,16.80
2022-12-25T07:49:19.381Z,17.83
2022-12-25T07:51:46.412Z,16.03
2022-12-25T07:54:13.378Z,17.20
2022-12-25T07:56:40.365Z,19.47
2022-12-25T07:59:07.304Z,18.73
2022-12-25T08:01:34.774Z,18.57
2022-12-25T08:04:03.205Z,19.40
2022-12-25T08:06:34.577Z,18.57
2022-12-25T08:09:12.848Z,19.73
2022-12-25T08:11:40.489Z,19.07
2022-12-25T08:14:09.231Z,18.97
2022-12-25T08:16:39.957Z,18.10
2022-12-25T08:19:10.349Z,19.77
2022-12-25T08:21:38.302Z,20.23
2022-12-25T08:24:05.470Z,18.97
2022-12-25T08:26:32.439Z,20.50
2022-12-25T08:28:59.480Z,20.90
2022-12-25T08:31:29.911Z,20.37
2022-12-25T08:33:59.588Z,23.80
2022-12-25T08:36:26.574Z,24.80
2022-12-25T08:39:00.280Z,28.63
2022-12-25T08:41:31.072Z,28.63
2022-12-25T08:43:58.441Z,26.13
2022-12-25T08:46:25.531Z,24.40
2022-12-25T08:48:52.559Z,25.87
2022-12-25T08:51:22.452Z,24.80
2022-12-25T08:53:51.894Z,24.03
2022-12-25T08:56:20.667Z,36.40
2022-12-25T08:58:47.703Z,32.20
2022-12-25T09:01:15.235Z,30.90
2022-12-25T09:03:43.305Z,30.17
2022-12-25T09:06:14.208Z,23.10
2022-12-25T09:08:48.074Z,24.50
2022-12-25T09:11:17.352Z,22.17
2022-12-25T09:13:44.460Z,22.50
2022-12-25T09:16:20.385Z,19.57
2022-12-25T09:18:48.127Z,23.93
2022-12-25T09:21:17.031Z,18.73
2022-12-25T09:23:44.681Z,16.63
2022-12-25T09:26:15.088Z,14.80
2022-12-25T09:28:50.222Z,15.80
2022-12-25T09:31:19.610Z,14.17
2022-12-25T09:33:46.951Z,13.23
2022-12-25T09:36:14.020Z,14.87
2022-12-25T09:38:41.174Z,13.77
2022-12-25T09:41:17.182Z,13.20
2022-12-25T09:44:08.572Z,14.33
2022-12-25T09:46:49.929Z,14.50
2022-12-25T09:49:47.167Z,15.50
2022-12-25T09:52:38.066Z,13.67
2022-12-25T09:55:30.800Z,16.30
2022-12-25T09:58:02.328Z,15.40
2022-12-25T10:00:41.193Z,15.60
2022-12-25T10:03:51.687Z,14.53
2022-12-25T10:06:25.477Z,13.50
2022-12-25T10:09:06.881Z,11.73
2022-12-25T10:12:02.482Z,11.70
2022-12-25T10:14:57.255Z,10.37
2022-12-25T10:18:25.439Z,10.10
2022-12-25T10:20:56.848Z,10.03
2022-12-25T10:23:37.830Z,11.00
2022-12-25T10:26:19.708Z,10.03
2022-12-25T10:29:15.616Z,9.77
2022-12-25T10:31:48.410Z,9.70
2022-12-25T10:34:16.496Z,9.10
2022-12-25T10:36:46.561Z,9.50
2022-12-25T10:39:22.413Z,7.77
2022-12-25T10:42:31.969Z,8.63
2022-12-25T10:45:02.669Z,9.07
2022-12-25T10:47:38.263Z,7.60
2022-12-25T10:50:21.041Z,7.37
2022-12-25T10:53:05.003Z,7.40
2022-12-25T10:55:33.669Z,7.43
2022-12-25T10:58:02.295Z,7.83
2022-12-25T11:00:32.504Z,7.37
2022-12-25T11:03:00.239Z,6.73
2022-12-25T11:05:33.954Z,6.70
2022-12-25T11:08:03.416Z,6.20
2022-12-25T11:10:42.941Z,6.20
2022-12-25T11:13:30.556Z,6.30
2022-12-25T11:16:06.954Z,5.50
2022-12-25T11:18:46.469Z,4.90
2022-12-25T11:21:23.197Z,5.30
2022-12-25T11:24:21.540Z,6.33
2022-12-25T11:26:49.607Z,6.17
2022-12-25T11:29:44.296Z,5.47
2022-12-25T11:32:29.712Z,5.07
2022-12-25T11:34:58.804Z,4.93
2022-12-25T11:37:47.624Z,4.50
2022-12-25T11:40:21.920Z,4.03
2022-12-25T11:43:11.960Z,4.27
2022-12-25T11:45:46.801Z,4.00
2022-12-25T11:48:26.416Z,4.40
2022-12-25T11:51:01.014Z,4.53
2022-12-25T11:53:52.885Z,4.33
2022-12-25T11:56:28.173Z,4.17
2022-12-25T11:59:10.544Z,4.27
2022-12-25T12:01:50.423Z,3.93
2022-12-25T12:04:31.038Z,4.20
2022-12-25T12:07:38.651Z,4.93
2022-12-25T12:10:44.399Z,4.37
2022-12-25T12:13:31.716Z,4.60
2022-12-25T12:15:59.376Z,4.37
2022-12-25T12:18:26.274Z,4.10
2022-12-25T12:21:31.073Z,3.90
2022-12-25T12:24:10.867Z,3.50
2022-12-25T12:26:43.426Z,4.10
2022-12-25T12:29:29.628Z,3.80
2022-12-25T12:32:04.137Z,5.70
2022-12-25T12:34:50.908Z,3.53
2022-12-25T12:37:28.298Z,3.40
2022-12-25T12:39:56.624Z,3.33
2022-12-25T12:42:36.452Z,3.77
2022-12-25T12:45:30.182Z,3.67
2022-12-25T12:47:58.468Z,4.10
2022-12-25T12:50:41.134Z,4.37
2022-12-25T12:53:23.578Z,3.93
2022-12-25T12:55:52.658Z,4.63
2022-12-25T12:58:36.025Z,4.17
2022-12-25T13:01:27.855Z,4.20
2022-12-25T13:04:32.474Z,4.30
2022-12-25T13:07:50.731Z,4.10
2022-12-25T13:10:45.019Z,3.90
2022-12-25T13:13:21.913Z,4.20
2022-12-25T13:15:51.604Z,3.93
2022-12-25T13:18:21.044Z,4.53
2022-12-25T13:20:57.190Z,4.20
2022-12-25T13:23:28.425Z,4.13
2022-12-25T13:26:12.410Z,4.67
2022-12-25T13:28:39.471Z,4.23
2022-12-25T13:31:13.130Z,4.10
2022-12-25T13:33:45.160Z,4.37
2022-12-25T13:36:14.524Z,3.87
2022-12-25T13:38:48.454Z,5.23
2022-12-25T13:41:40.674Z,4.57
2022-12-25T13:44:30.640Z,4.40
2022-12-25T13:47:20.241Z,4.90
2022-12-25T13:49:49.332Z,4.10
2022-12-25T13:52:22.816Z,5.20
2022-12-25T13:55:09.442Z,4.73
2022-12-25T13:57:47.703Z,4.90
2022-12-25T14:00:24.361Z,4.97
2022-12-25T14:02:52.116Z,5.60
2022-12-25T14:05:24.859Z,6.13
2022-12-25T14:07:54.016Z,5.33
2022-12-25T14:10:23.862Z,4.93
2022-12-25T14:12:54.481Z,5.57
2022-12-25T14:15:24.390Z,5.33
2022-12-25T14:17:52.651Z,6.43
2022-12-25T14:20:31.683Z,6.17
2022-12-25T14:23:01.138Z,37.50
2022-12-25T14:25:41.615Z,25.73
2022-12-25T14:28:22.056Z,19.30
2022-12-25T14:30:49.344Z,16.70
2022-12-25T14:33:20.341Z,12.60
2022-12-25T14:35:48.791Z,6.90
2022-12-25T14:38:29.557Z,6.67
2022-12-25T14:41:35.021Z,9.90
2022-12-25T14:44:07.127Z,8.50
2022-12-25T14:46:35.115Z,6.20
2022-12-25T14:49:07.774Z,7.60
2022-12-25T14:51:39.211Z,8.10
2022-12-25T14:54:20.728Z,8.70
2022-12-25T14:56:50.836Z,8.70
2022-12-25T14:59:24.034Z,46.80
2022-12-25T15:01:59.070Z,15.63
2022-12-25T15:04:27.848Z,14.40
2022-12-25T15:07:11.531Z,10.23
2022-12-25T15:09:40.420Z,19.97
2022-12-25T15:12:07.464Z,32.17
2022-12-25T15:14:36.626Z,39.23
2022-12-25T15:17:03.528Z,12.60
2022-12-25T15:19:37.672Z,10.40
2022-12-25T15:22:06.440Z,11.00
2022-12-25T15:24:33.613Z,8.20
2022-12-25T15:27:01.064Z,10.50
2022-12-25T15:32:20.131Z,11.60
2022-12-25T15:34:50.198Z,11.60
2022-12-25T15:37:19.124Z,11.73
2022-12-25T15:39:46.574Z,12.70
2022-12-25T15:42:19.673Z,12.87
2022-12-25T15:44:46.759Z,16.33
2022-12-25T15:47:16.110Z,11.00
2022-12-25T15:49:43.703Z,10.70
2022-12-25T15:52:14.680Z,8.77
2022-12-25T15:54:41.577Z,8.53
2022-12-25T15:57:21.746Z,9.00
2022-12-25T15:59:48.715Z,15.07
2022-12-25T16:02:20.373Z,13.97
2022-12-25T16:04:47.980Z,14.97
2022-12-25T16:07:18.147Z,26.30
2022-12-25T16:09:45.363Z,21.67
2022-12-25T16:12:12.840Z,21.27
2022-12-25T16:14:39.871Z,17.60
2022-12-25T16:17:08.410Z,16.83
2022-12-25T16:19:35.345Z,15.17
2022-12-25T16:22:02.351Z,15.43
2022-12-25T16:24:29.441Z,13.90
2022-12-25T16:26:56.511Z,14.37
2022-12-25T16:29:23.474Z,23.70
2022-12-25T16:31:50.441Z,23.13
2022-12-25T16:34:17.464Z,27.00
2022-12-25T16:36:44.483Z,33.03
2022-12-25T16:39:11.620Z,31.00
2022-12-25T16:41:38.635Z,25.77
2022-12-25T16:44:09.675Z,27.27
2022-12-25T16:46:40.835Z,19.37
2022-12-25T16:49:08.900Z,20.50
2022-12-25T16:51:35.846Z,31.13
2022-12-25T16:54:03.075Z,29.63
2022-12-25T16:56:31.079Z,25.50
2022-12-25T16:59:01.293Z,24.07
2022-12-25T17:01:28.457Z,24.73
2022-12-25T17:04:01.785Z,24.60
2022-12-25T17:06:29.146Z,17.70
2022-12-25T17:09:00.226Z,20.27
2022-12-25T17:11:30.226Z,19.30
2022-12-25T17:14:04.246Z,20.40
2022-12-25T17:16:35.219Z,22.73
2022-12-25T17:19:08.277Z,22.80
2022-12-25T17:21:38.406Z,24.43
2022-12-25T17:24:06.743Z,24.67
2022-12-25T17:26:34.213Z,39.07
2022-12-25T17:29:01.330Z,59.43
2022-12-25T17:31:29.395Z,50.87
2022-12-25T17:33:56.549Z,42.80
2022-12-25T17:36:24.013Z,62.73
2022-12-25T17:38:51.066Z,59.40
2022-12-25T17:41:21.609Z,52.90
2022-12-25T17:43:49.024Z,37.67
2022-12-25T17:46:21.988Z,40.20
2022-12-25T17:48:50.774Z,34.93
2022-12-25T17:51:22.576Z,31.83
2022-12-25T17:53:58.367Z,31.63
2022-12-25T17:56:25.980Z,26.20
2022-12-25T17:59:00.591Z,27.30
2022-12-25T18:01:29.487Z,25.90
2022-12-25T18:03:59.486Z,32.40
2022-12-25T18:06:29.825Z,46.67
2022-12-25T18:08:58.279Z,52.47
2022-12-25T18:11:33.051Z,57.50
2022-12-25T18:14:06.446Z,55.03
2022-12-25T18:16:37.899Z,45.40
2022-12-25T18:19:05.161Z,29.93
2022-12-25T18:21:32.524Z,31.63
2022-12-25T18:23:59.674Z,22.63
2022-12-25T18:26:28.995Z,22.80
2022-12-25T18:28:56.648Z,20.67
2022-12-25T18:31:28.088Z,27.10
2022-12-25T18:33:55.150Z,29.77
2022-12-25T18:36:25.192Z,21.50
2022-12-25T18:38:55.066Z,26.83
2022-12-25T18:41:23.525Z,22.70
2022-12-25T18:43:52.428Z,20.30
2022-12-25T18:46:25.365Z,16.00
2022-12-25T18:48:55.193Z,16.97
2022-12-25T18:51:22.569Z,252.17
2022-12-25T18:53:49.617Z,115.00
2022-12-25T18:56:18.756Z,150.50
2022-12-25T18:58:47.385Z,47.93
2022-12-25T19:01:19.266Z,45.97
2022-12-25T19:03:49.517Z,27.80
2022-12-25T19:06:28.014Z,32.90
2022-12-25T19:08:56.406Z,47.27
2022-12-25T19:11:23.913Z,34.67
2022-12-25T19:13:50.986Z,35.20
2022-12-25T19:16:18.608Z,33.37
2022-12-25T19:18:46.294Z,46.50
2022-12-25T19:21:13.401Z,75.37
2022-12-25T19:23:40.564Z,71.43
2022-12-25T19:26:10.198Z,53.60
2022-12-25T19:28:39.633Z,40.27
2022-12-25T19:31:09.305Z,46.83
2022-12-25T19:33:39.627Z,46.47
2022-12-25T19:36:14.216Z,50.90
2022-12-25T19:38:42.584Z,43.90
2022-12-25T19:41:16.265Z,41.40
2022-12-25T19:43:48.953Z,25.30
2022-12-25T19:46:32.376Z,27.70
2022-12-25T19:49:04.620Z,20.37
2022-12-25T19:51:39.151Z,23.17
2022-12-25T19:54:06.912Z,25.90
2022-12-25T19:56:34.755Z,25.40
2022-12-25T19:59:01.856Z,21.20
2022-12-25T20:01:30.712Z,28.87
2022-12-25T20:03:58.212Z,22.90
2022-12-25T20:06:32.310Z,19.87
2022-12-25T20:09:06.318Z,27.90
2022-12-25T20:11:35.395Z,28.80
2022-12-25T20:14:03.189Z,24.63
2022-12-25T20:16:30.331Z,37.40
2022-12-25T20:18:58.435Z,33.53
2022-12-25T20:21:30.257Z,18.40
2022-12-25T20:23:58.106Z,17.13
2022-12-25T20:26:29.455Z,14.93
2022-12-25T20:28:58.157Z,18.70
2022-12-25T20:31:29.250Z,23.20
2022-12-25T20:34:00.023Z,23.93
2022-12-25T20:36:32.809Z,26.70
2022-12-25T20:39:06.794Z,30.03
2022-12-25T20:41:35.191Z,30.80
2022-12-25T20:44:04.908Z,30.60
2022-12-25T20:46:34.075Z,30.77
2022-12-25T20:49:04.592Z,23.10
2022-12-25T20:51:32.447Z,24.80
2022-12-25T20:53:59.530Z,26.57
2022-12-25T20:56:28.266Z,25.17
2022-12-25T20:58:58.216Z,30.70
2022-12-25T21:01:26.115Z,22.63
2022-12-25T21:03:54.619Z,25.50
2022-12-25T21:06:23.237Z,25.20
2022-12-25T21:08:50.268Z,25.13
2022-12-25T21:11:18.269Z,36.47
2022-12-25T21:13:47.025Z,30.43
2022-12-25T21:16:19.079Z,36.07
2022-12-25T21:18:47.624Z,30.20
2022-12-25T21:21:15.672Z,43.07
2022-12-25T21:23:42.952Z,124.53
2022-12-25T21:26:28.416Z,82.53
2022-12-25T21:29:00.584Z,40.27
2022-12-25T21:31:28.633Z,29.83
2022-12-25T21:33:57.923Z,20.67
2022-12-25T21:36:34.396Z,22.83
2022-12-25T21:39:05.928Z,24.37
2022-12-25T21:41:39.684Z,19.60
2022-12-25T21:44:08.224Z,32.10
2022-12-25T21:46:35.311Z,20.40
2022-12-25T21:49:02.430Z,21.50
2022-12-25T21:51:51.399Z,35.63
2022-12-25T21:54:21.785Z,33.57
2022-12-25T21:56:50.466Z,27.17
2022-12-25T21:59:21.579Z,21.57
2022-12-25T22:01:51.016Z,22.07
2022-12-25T22:04:21.168Z,22.00
2022-12-25T22:07:07.494Z,22.10
2022-12-25T22:09:35.050Z,22.77
2022-12-25T22:12:21.450Z,23.27
2022-12-25T22:14:56.775Z,23.87
2022-12-25T22:17:45.644Z,24.27
2022-12-25T22:20:31.394Z,23.30
2022-12-25T22:22:58.901Z,30.40
2022-12-25T22:25:26.325Z,32.50
2022-12-25T22:27:53.940Z,36.27
2022-12-25T22:30:27.762Z,35.33
2022-12-25T22:32:56.068Z,27.50
2022-12-25T22:35:23.540Z,30.97
2022-12-25T22:37:50.596Z,30.43
2022-12-25T22:40:20.081Z,30.77
2022-12-25T22:42:47.458Z,34.23
2022-12-25T22:45:14.970Z,34.73
2022-12-25T22:47:42.466Z,34.07
2022-12-25T22:50:11.541Z,30.20
2022-12-25T22:52:39.244Z,27.47
2022-12-25T22:55:09.288Z,24.13
2022-12-25T22:57:36.932Z,21.10
2022-12-25T23:00:06.639Z,21.57
2022-12-25T23:02:35.566Z,20.13
2022-12-25T23:05:03.507Z,20.97
2022-12-25T23:07:30.511Z,21.13
2022-12-25T23:09:57.449Z,19.20
2022-12-25T23:12:43.423Z,19.73
2022-12-25T23:15:10.600Z,21.37
2022-12-25T23:17:56.219Z,20.47
2022-12-25T23:20:41.785Z,21.70
2022-12-25T23:23:35.350Z,20.63
2022-12-25T23:26:10.094Z,22.20
2022-12-25T23:28:58.438Z,20.43
2022-12-25T23:31:39.903Z,19.53
2022-12-25T23:34:09.201Z,20.17
2022-12-25T23:36:36.732Z,18.63
2022-12-25T23:39:09.571Z,20.33
2022-12-25T23:41:42.759Z,20.27
2022-12-25T23:44:12.437Z,21.47
2022-12-25T23:46:41.864Z,27.30
2022-12-25T23:49:22.062Z,23.10
2022-12-25T23:51:49.111Z,21.70
2022-12-25T23:54:21.556Z,20.17
2022-12-25T23:56:49.472Z,21.90
2022-12-25T23:59:17.800Z,23.93
